Ana Sayfa
METAR-TAF:

METAR-TAF

Havaalanları :

Cam Ranh Uluslararası Havaalanı

Cam Ranh, Vietnam

Enlem: 11-59-53N, Boylam: 109-13-10E, yükseklik: 12 m

Güncel hava durumu gözlemi

Rapor saat 21:00 UTC de 38 dakika önce yapıldı.
Rüzgar kuzeydan 4 kt
Sıcaklık 24°C
Nem 83%
Basınç 1014 hPa
Görüş mesafesi 10 km veya daha fazla
1500 ft yükseklikte az bulutlu

METAR: VVCR 242100Z 35004KT 9999 FEW015 24/21 Q1014 NOSIG

Saat: 04:38 (21:38 UTC)

Tahmin

Rapor saat 17:00 UTC de 4 saat ve 38 dakika önce yapıldı.
Ayın 24'si saat 18 UTC'den ayın 25'si saat 18 UTC'ye kadar geçerli Tahmin
Rüzgar kuzey/kuzeybatıdan 9 kt
Görüş mesafesi 10 km veya daha fazla
1500 ft yükseklikte az bulutlu
6000 ft yükseklikte parçalı bulutlu
Dönüşüyor
ayın 25'si saat 01 UTC'den ayın 25'si saat 02 UTC'ye kadar
Rüzgar kuzeydoğudan 14 kt

TAF: VVCR 241700Z 2418/2518 34009KT 9999 FEW015 SCT060 BECMG 2501/2502 04014KT

4.000'den fazla havaalanı için hava durumu gözlemleri ve tahminleri (METAR ve TAF raporları).

Kullanılabilir istasyonlar harita üzerinde sarı ve kırmızı noktalarla gösterilir.

İstasyonun adını görmek için fareyi noktanın üzerinde gezdirin.

Sonrasında hava gözlem ve tahminlerini görmek için tıklayın.

Haritayı değiştirmek için: yaklaştırmak için siyah artı işaretli yeşil düğmeye ve uzaklaştırmak için de eksi işaretli düğmeye hızla tıklayın; bitişik haritalar için yeşil okları kullanın.


METAR-TAF: